sensor_id;sensor_type;location;lat;lon;timestamp;temperature;humidity
11538;DHT22;50159;49.426;11.182;2022-10-16T00:01:39;15.00;99.90
11538;DHT22;50159;49.426;11.182;2022-10-16T00:04:06;15.00;99.90
11538;DHT22;50159;49.426;11.182;2022-10-16T00:06:33;15.00;99.90
11538;DHT22;50159;49.426;11.182;2022-10-16T00:09:00;15.00;99.90
11538;DHT22;50159;49.426;11.182;2022-10-16T00:11:30;15.00;99.90
11538;DHT22;50159;49.426;11.182;2022-10-16T00:14:05;15.10;99.90
11538;DHT22;50159;49.426;11.182;2022-10-16T00:16:38;15.00;99.90
11538;DHT22;50159;49.426;11.182;2022-10-16T00:19:05;15.00;99.90
11538;DHT22;50159;49.426;11.182;2022-10-16T00:21:33;15.00;99.90
11538;DHT22;50159;49.426;11.182;2022-10-16T00:24:03;15.00;99.90
11538;DHT22;50159;49.426;11.182;2022-10-16T00:26:33;14.90;99.90
11538;DHT22;50159;49.426;11.182;2022-10-16T00:29:01;14.90;99.90
11538;DHT22;50159;49.426;11.182;2022-10-16T00:31:29;15.00;99.90
11538;DHT22;50159;49.426;11.182;2022-10-16T00:33:56;14.90;99.90
11538;DHT22;50159;49.426;11.182;2022-10-16T00:36:25;14.90;99.90
11538;DHT22;50159;49.426;11.182;2022-10-16T00:38:54;14.90;99.90
11538;DHT22;50159;49.426;11.182;2022-10-16T00:41:24;15.30;99.90
11538;DHT22;50159;49.426;11.182;2022-10-16T00:43:54;14.90;99.90
11538;DHT22;50159;49.426;11.182;2022-10-16T00:46:29;14.90;99.90
11538;DHT22;50159;49.426;11.182;2022-10-16T00:49:05;14.90;99.90
11538;DHT22;50159;49.426;11.182;2022-10-16T00:51:54;14.90;99.90
11538;DHT22;50159;49.426;11.182;2022-10-16T00:54:25;14.90;99.90
11538;DHT22;50159;49.426;11.182;2022-10-16T00:56:55;14.80;99.90
11538;DHT22;50159;49.426;11.182;2022-10-16T00:59:31;14.90;99.90
11538;DHT22;50159;49.426;11.182;2022-10-16T01:02:00;14.90;99.90
11538;DHT22;50159;49.426;11.182;2022-10-16T01:04:34;15.00;99.90
11538;DHT22;50159;49.426;11.182;2022-10-16T01:16:15;14.80;99.90
11538;DHT22;50159;49.426;11.182;2022-10-16T01:18:57;14.80;99.90
11538;DHT22;50159;49.426;11.182;2022-10-16T01:21:36;15.00;99.90
11538;DHT22;50159;49.426;11.182;2022-10-16T01:27:27;14.70;99.90
11538;DHT22;50159;49.426;11.182;2022-10-16T01:30:18;14.70;99.90
11538;DHT22;50159;49.426;11.182;2022-10-16T01:32:55;14.70;99.90
11538;DHT22;50159;49.426;11.182;2022-10-16T01:35:31;14.70;99.90
11538;DHT22;50159;49.426;11.182;2022-10-16T01:38:26;14.70;99.90
11538;DHT22;50159;49.426;11.182;2022-10-16T01:41:03;14.60;99.90
11538;DHT22;50159;49.426;11.182;2022-10-16T01:43:42;14.70;99.90
11538;DHT22;50159;49.426;11.182;2022-10-16T01:46:16;14.80;99.90
11538;DHT22;50159;49.426;11.182;2022-10-16T01:48:48;14.60;99.90
11538;DHT22;50159;49.426;11.182;2022-10-16T01:51:17;14.70;99.90
11538;DHT22;50159;49.426;11.182;2022-10-16T01:53:51;14.50;99.90
11538;DHT22;50159;49.426;11.182;2022-10-16T01:56:21;14.90;99.90
11538;DHT22;50159;49.426;11.182;2022-10-16T01:59:02;14.60;99.90
11538;DHT22;50159;49.426;11.182;2022-10-16T02:01:35;14.60;99.90
11538;DHT22;50159;49.426;11.182;2022-10-16T02:04:15;14.60;99.90
11538;DHT22;50159;49.426;11.182;2022-10-16T02:06:45;14.60;99.90
11538;DHT22;50159;49.426;11.182;2022-10-16T02:09:12;14.60;99.90
11538;DHT22;50159;49.426;11.182;2022-10-16T02:11:39;14.80;99.90
11538;DHT22;50159;49.426;11.182;2022-10-16T02:14:07;15.00;99.90
11538;DHT22;50159;49.426;11.182;2022-10-16T02:16:37;14.70;99.90
11538;DHT22;50159;49.426;11.182;2022-10-16T02:19:07;14.60;99.90
11538;DHT22;50159;49.426;11.182;2022-10-16T02:24:32;14.60;99.90
11538;DHT22;50159;49.426;11.182;2022-10-16T02:30:15;14.70;99.90
11538;DHT22;50159;49.426;11.182;2022-10-16T02:32:57;14.70;99.90
11538;DHT22;50159;49.426;11.182;2022-10-16T02:35:27;14.60;99.90
11538;DHT22;50159;49.426;11.182;2022-10-16T02:37:56;14.60;99.90
11538;DHT22;50159;49.426;11.182;2022-10-16T02:40:24;14.70;99.90
11538;DHT22;50159;49.426;11.182;2022-10-16T02:42:53;14.70;99.90
11538;DHT22;50159;49.426;11.182;2022-10-16T02:45:21;14.60;99.90
11538;DHT22;50159;49.426;11.182;2022-10-16T02:47:49;14.60;99.90
11538;DHT22;50159;49.426;11.182;2022-10-16T02:50:16;14.60;99.90
11538;DHT22;50159;49.426;11.182;2022-10-16T02:52:43;14.60;99.90
11538;DHT22;50159;49.426;11.182;2022-10-16T02:55:10;14.60;99.90
11538;DHT22;50159;49.426;11.182;2022-10-16T02:57:37;14.60;99.90
11538;DHT22;50159;49.426;11.182;2022-10-16T03:00:05;14.60;99.90
11538;DHT22;50159;49.426;11.182;2022-10-16T03:02:34;14.60;99.90
11538;DHT22;50159;49.426;11.182;2022-10-16T03:05:01;14.60;99.90
11538;DHT22;50159;49.426;11.182;2022-10-16T03:07:28;14.60;99.90
11538;DHT22;50159;49.426;11.182;2022-10-16T03:09:55;14.60;99.90
11538;DHT22;50159;49.426;11.182;2022-10-16T03:12:22;14.60;99.90
11538;DHT22;50159;49.426;11.182;2022-10-16T03:14:48;14.60;99.90
11538;DHT22;50159;49.426;11.182;2022-10-16T03:17:15;14.60;99.90
11538;DHT22;50159;49.426;11.182;2022-10-16T03:19:43;14.60;99.90
11538;DHT22;50159;49.426;11.182;2022-10-16T03:22:10;14.60;99.90
11538;DHT22;50159;49.426;11.182;2022-10-16T03:24:37;14.60;99.90
11538;DHT22;50159;49.426;11.182;2022-10-16T03:27:03;14.60;99.90
11538;DHT22;50159;49.426;11.182;2022-10-16T03:29:30;14.60;99.90
11538;DHT22;50159;49.426;11.182;2022-10-16T03:31:59;14.60;99.90
11538;DHT22;50159;49.426;11.182;2022-10-16T03:34:26;14.60;99.90
11538;DHT22;50159;49.426;11.182;2022-10-16T03:36:54;14.60;99.90
11538;DHT22;50159;49.426;11.182;2022-10-16T03:39:21;14.60;99.90
11538;DHT22;50159;49.426;11.182;2022-10-16T03:41:48;14.60;99.90
11538;DHT22;50159;49.426;11.182;2022-10-16T03:44:15;14.60;99.90
11538;DHT22;50159;49.426;11.182;2022-10-16T03:46:42;14.70;99.90
11538;DHT22;50159;49.426;11.182;2022-10-16T03:49:08;14.60;99.90
11538;DHT22;50159;49.426;11.182;2022-10-16T03:51:35;14.60;99.90
11538;DHT22;50159;49.426;11.182;2022-10-16T03:54:02;14.70;99.90
11538;DHT22;50159;49.426;11.182;2022-10-16T03:56:29;15.10;99.90
11538;DHT22;50159;49.426;11.182;2022-10-16T03:58:56;14.60;99.90
11538;DHT22;50159;49.426;11.182;2022-10-16T04:01:24;14.60;99.90
11538;DHT22;50159;49.426;11.182;2022-10-16T04:03:51;14.60;99.90
11538;DHT22;50159;49.426;11.182;2022-10-16T04:06:18;14.60;99.90
11538;DHT22;50159;49.426;11.182;2022-10-16T04:08:45;14.60;99.90
11538;DHT22;50159;49.426;11.182;2022-10-16T04:11:12;14.70;99.90
11538;DHT22;50159;49.426;11.182;2022-10-16T04:13:39;15.00;99.90
11538;DHT22;50159;49.426;11.182;2022-10-16T04:16:06;14.60;99.90
11538;DHT22;50159;49.426;11.182;2022-10-16T04:18:33;14.60;99.90
11538;DHT22;50159;49.426;11.182;2022-10-16T04:21:06;14.60;99.90
11538;DHT22;50159;49.426;11.182;2022-10-16T04:23:34;14.50;99.90
11538;DHT22;50159;49.426;11.182;2022-10-16T04:26:01;14.70;99.90
11538;DHT22;50159;49.426;11.182;2022-10-16T04:28:28;14.60;99.90
11538;DHT22;50159;49.426;11.182;2022-10-16T04:30:55;14.60;99.90
11538;DHT22;50159;49.426;11.182;2022-10-16T04:33:22;14.90;99.90
11538;DHT22;50159;49.426;11.182;2022-10-16T04:35:55;14.80;99.90
11538;DHT22;50159;49.426;11.182;2022-10-16T04:38:22;14.80;99.90
11538;DHT22;50159;49.426;11.182;2022-10-16T04:40:49;14.60;99.90
11538;DHT22;50159;49.426;11.182;2022-10-16T04:43:16;14.70;99.90
11538;DHT22;50159;49.426;11.182;2022-10-16T04:45:43;14.60;99.90
11538;DHT22;50159;49.426;11.182;2022-10-16T04:48:10;14.60;99.90
11538;DHT22;50159;49.426;11.182;2022-10-16T04:50:37;14.60;99.90
11538;DHT22;50159;49.426;11.182;2022-10-16T04:53:05;14.60;99.90
11538;DHT22;50159;49.426;11.182;2022-10-16T04:55:34;14.60;99.90
11538;DHT22;50159;49.426;11.182;2022-10-16T04:58:01;14.60;99.90
11538;DHT22;50159;49.426;11.182;2022-10-16T05:00:28;14.30;99.90
11538;DHT22;50159;49.426;11.182;2022-10-16T05:02:55;14.50;99.90
11538;DHT22;50159;49.426;11.182;2022-10-16T05:05:22;14.50;99.90
11538;DHT22;50159;49.426;11.182;2022-10-16T05:07:49;14.50;99.90
11538;DHT22;50159;49.426;11.182;2022-10-16T05:10:16;14.50;99.90
11538;DHT22;50159;49.426;11.182;2022-10-16T05:12:43;14.60;99.90
11538;DHT22;50159;49.426;11.182;2022-10-16T05:15:11;14.50;99.90
11538;DHT22;50159;49.426;11.182;2022-10-16T05:17:38;14.50;99.90
11538;DHT22;50159;49.426;11.182;2022-10-16T05:20:10;14.50;99.90
11538;DHT22;50159;49.426;11.182;2022-10-16T05:22:38;14.50;99.90
11538;DHT22;50159;49.426;11.182;2022-10-16T05:25:05;14.50;99.90
11538;DHT22;50159;49.426;11.182;2022-10-16T05:27:32;14.50;99.90
11538;DHT22;50159;49.426;11.182;2022-10-16T05:29:59;14.40;99.90
11538;DHT22;50159;49.426;11.182;2022-10-16T05:32:26;14.40;99.90
11538;DHT22;50159;49.426;11.182;2022-10-16T05:34:52;14.40;99.90
11538;DHT22;50159;49.426;11.182;2022-10-16T05:37:19;14.40;99.90
11538;DHT22;50159;49.426;11.182;2022-10-16T05:39:46;14.30;99.90
11538;DHT22;50159;49.426;11.182;2022-10-16T05:42:13;14.30;99.90
11538;DHT22;50159;49.426;11.182;2022-10-16T05:44:41;14.40;99.90
11538;DHT22;50159;49.426;11.182;2022-10-16T05:47:08;14.30;99.90
11538;DHT22;50159;49.426;11.182;2022-10-16T05:49:35;14.10;99.90
11538;DHT22;50159;49.426;11.182;2022-10-16T05:52:06;14.30;99.90
11538;DHT22;50159;49.426;11.182;2022-10-16T05:54:33;14.30;99.90
11538;DHT22;50159;49.426;11.182;2022-10-16T05:57:00;14.40;99.90
11538;DHT22;50159;49.426;11.182;2022-10-16T05:59:28;14.50;99.90
11538;DHT22;50159;49.426;11.182;2022-10-16T06:01:55;14.40;99.90
11538;DHT22;50159;49.426;11.182;2022-10-16T06:04:22;14.40;99.90
11538;DHT22;50159;49.426;11.182;2022-10-16T06:06:48;14.40;99.90
11538;DHT22;50159;49.426;11.182;2022-10-16T06:09:15;14.40;99.90
11538;DHT22;50159;49.426;11.182;2022-10-16T06:11:42;14.50;99.90
11538;DHT22;50159;49.426;11.182;2022-10-16T06:14:09;14.50;99.90
11538;DHT22;50159;49.426;11.182;2022-10-16T06:16:37;14.50;99.90
11538;DHT22;50159;49.426;11.182;2022-10-16T06:19:05;14.50;99.90
11538;DHT22;50159;49.426;11.182;2022-10-16T06:21:35;14.60;99.90
11538;DHT22;50159;49.426;11.182;2022-10-16T06:24:02;14.70;99.90
11538;DHT22;50159;49.426;11.182;2022-10-16T06:26:30;14.60;99.90
11538;DHT22;50159;49.426;11.182;2022-10-16T06:28:59;14.70;99.90
11538;DHT22;50159;49.426;11.182;2022-10-16T06:31:27;14.70;99.90
11538;DHT22;50159;49.426;11.182;2022-10-16T06:33:57;14.80;99.90
11538;DHT22;50159;49.426;11.182;2022-10-16T06:36:24;15.20;99.90
11538;DHT22;50159;49.426;11.182;2022-10-16T06:38:52;15.00;99.90
11538;DHT22;50159;49.426;11.182;2022-10-16T06:41:21;15.10;99.90
11538;DHT22;50159;49.426;11.182;2022-10-16T06:43:49;15.20;99.90
11538;DHT22;50159;49.426;11.182;2022-10-16T06:46:20;15.70;99.90
11538;DHT22;50159;49.426;11.182;2022-10-16T06:48:48;15.50;99.90
11538;DHT22;50159;49.426;11.182;2022-10-16T06:51:20;15.50;99.90
11538;DHT22;50159;49.426;11.182;2022-10-16T06:53:50;15.50;99.90
11538;DHT22;50159;49.426;11.182;2022-10-16T06:56:31;15.60;99.90
11538;DHT22;50159;49.426;11.182;2022-10-16T06:59:00;15.70;99.90
11538;DHT22;50159;49.426;11.182;2022-10-16T07:01:28;15.80;99.90
11538;DHT22;50159;49.426;11.182;2022-10-16T07:03:55;15.80;99.90
11538;DHT22;50159;49.426;11.182;2022-10-16T07:06:23;15.80;99.90
11538;DHT22;50159;49.426;11.182;2022-10-16T07:08:52;15.70;99.90
11538;DHT22;50159;49.426;11.182;2022-10-16T07:11:21;15.80;99.90
11538;DHT22;50159;49.426;11.182;2022-10-16T07:13:50;15.90;99.90
11538;DHT22;50159;49.426;11.182;2022-10-16T07:16:24;15.60;99.90
11538;DHT22;50159;49.426;11.182;2022-10-16T07:18:57;15.50;99.90
11538;DHT22;50159;49.426;11.182;2022-10-16T07:21:29;15.50;99.90
11538;DHT22;50159;49.426;11.182;2022-10-16T07:23:59;15.70;99.90
11538;DHT22;50159;49.426;11.182;2022-10-16T07:26:30;15.40;99.90
11538;DHT22;50159;49.426;11.182;2022-10-16T07:28:58;15.40;99.90
11538;DHT22;50159;49.426;11.182;2022-10-16T07:31:26;15.70;99.90
11538;DHT22;50159;49.426;11.182;2022-10-16T07:33:54;15.70;99.90
11538;DHT22;50159;49.426;11.182;2022-10-16T07:36:21;15.50;99.90
11538;DHT22;50159;49.426;11.182;2022-10-16T07:38:48;15.50;99.90
11538;DHT22;50159;49.426;11.182;2022-10-16T07:41:21;15.50;99.90
11538;DHT22;50159;49.426;11.182;2022-10-16T07:43:49;15.50;99.90
11538;DHT22;50159;49.426;11.182;2022-10-16T07:46:19;15.50;99.90
11538;DHT22;50159;49.426;11.182;2022-10-16T07:48:47;15.50;99.90
11538;DHT22;50159;49.426;11.182;2022-10-16T07:51:17;15.50;99.90
11538;DHT22;50159;49.426;11.182;2022-10-16T07:53:47;15.40;99.90
11538;DHT22;50159;49.426;11.182;2022-10-16T07:56:15;15.50;99.90
11538;DHT22;50159;49.426;11.182;2022-10-16T07:58:43;15.50;99.90
11538;DHT22;50159;49.426;11.182;2022-10-16T08:01:12;15.50;99.90
11538;DHT22;50159;49.426;11.182;2022-10-16T08:03:42;15.60;99.90
11538;DHT22;50159;49.426;11.182;2022-10-16T08:06:10;15.60;99.90
11538;DHT22;50159;49.426;11.182;2022-10-16T08:08:37;15.70;99.90
11538;DHT22;50159;49.426;11.182;2022-10-16T08:11:04;15.90;99.90
11538;DHT22;50159;49.426;11.182;2022-10-16T08:13:31;15.80;99.90
11538;DHT22;50159;49.426;11.182;2022-10-16T08:15:58;15.80;99.90
11538;DHT22;50159;49.426;11.182;2022-10-16T08:18:26;15.90;99.90
11538;DHT22;50159;49.426;11.182;2022-10-16T08:20:57;15.90;99.90
11538;DHT22;50159;49.426;11.182;2022-10-16T08:23:27;16.00;99.90
11538;DHT22;50159;49.426;11.182;2022-10-16T08:25:55;16.20;99.90
11538;DHT22;50159;49.426;11.182;2022-10-16T08:28:27;16.10;99.90
11538;DHT22;50159;49.426;11.182;2022-10-16T08:30:54;16.20;99.90
11538;DHT22;50159;49.426;11.182;2022-10-16T08:33:23;16.30;99.90
11538;DHT22;50159;49.426;11.182;2022-10-16T08:35:53;16.30;99.90
11538;DHT22;50159;49.426;11.182;2022-10-16T08:38:21;16.40;99.90
11538;DHT22;50159;49.426;11.182;2022-10-16T08:40:48;16.50;99.90
11538;DHT22;50159;49.426;11.182;2022-10-16T08:46:37;17.00;99.90
11538;DHT22;50159;49.426;11.182;2022-10-16T08:49:16;17.20;99.90
11538;DHT22;50159;49.426;11.182;2022-10-16T08:51:44;17.40;99.90
11538;DHT22;50159;49.426;11.182;2022-10-16T08:54:34;17.60;99.90
11538;DHT22;50159;49.426;11.182;2022-10-16T08:57:11;17.70;99.90
11538;DHT22;50159;49.426;11.182;2022-10-16T08:59:45;17.70;99.90
11538;DHT22;50159;49.426;11.182;2022-10-16T09:02:32;17.70;99.90
11538;DHT22;50159;49.426;11.182;2022-10-16T09:08:05;17.80;99.90
11538;DHT22;50159;49.426;11.182;2022-10-16T09:16:46;17.90;99.90
11538;DHT22;50159;49.426;11.182;2022-10-16T09:19:38;18.10;99.90
11538;DHT22;50159;49.426;11.182;2022-10-16T09:22:16;18.20;99.90
11538;DHT22;50159;49.426;11.182;2022-10-16T09:24:43;18.30;99.90
11538;DHT22;50159;49.426;11.182;2022-10-16T09:27:11;18.40;99.90
11538;DHT22;50159;49.426;11.182;2022-10-16T09:29:40;18.40;99.90
11538;DHT22;50159;49.426;11.182;2022-10-16T09:32:12;18.40;99.90
11538;DHT22;50159;49.426;11.182;2022-10-16T09:34:48;18.40;99.90
11538;DHT22;50159;49.426;11.182;2022-10-16T09:37:22;18.40;99.90
11538;DHT22;50159;49.426;11.182;2022-10-16T09:39:54;18.70;99.90
11538;DHT22;50159;49.426;11.182;2022-10-16T09:42:31;18.40;99.90
11538;DHT22;50159;49.426;11.182;2022-10-16T09:45:00;18.20;99.90
11538;DHT22;50159;49.426;11.182;2022-10-16T09:47:29;18.10;99.90
11538;DHT22;50159;49.426;11.182;2022-10-16T09:50:00;18.00;99.90
11538;DHT22;50159;49.426;11.182;2022-10-16T09:52:31;18.00;99.90
11538;DHT22;50159;49.426;11.182;2022-10-16T09:55:00;17.80;99.90
11538;DHT22;50159;49.426;11.182;2022-10-16T09:57:29;17.70;99.90
11538;DHT22;50159;49.426;11.182;2022-10-16T09:59:58;17.60;99.90
11538;DHT22;50159;49.426;11.182;2022-10-16T10:02:35;17.50;99.90
11538;DHT22;50159;49.426;11.182;2022-10-16T10:05:06;17.50;99.90
11538;DHT22;50159;49.426;11.182;2022-10-16T10:07:59;17.50;99.90
11538;DHT22;50159;49.426;11.182;2022-10-16T10:10:33;17.70;99.90
11538;DHT22;50159;49.426;11.182;2022-10-16T10:13:18;17.80;99.90
11538;DHT22;50159;49.426;11.182;2022-10-16T10:15:47;18.00;99.90
11538;DHT22;50159;49.426;11.182;2022-10-16T10:18:22;18.20;99.90
11538;DHT22;50159;49.426;11.182;2022-10-16T10:21:01;18.40;99.90
11538;DHT22;50159;49.426;11.182;2022-10-16T10:23:30;18.60;99.90
11538;DHT22;50159;49.426;11.182;2022-10-16T10:26:23;18.80;99.90
11538;DHT22;50159;49.426;11.182;2022-10-16T10:28:55;18.90;99.90
11538;DHT22;50159;49.426;11.182;2022-10-16T10:31:33;19.20;99.90
11538;DHT22;50159;49.426;11.182;2022-10-16T10:34:34;19.40;99.90
11538;DHT22;50159;49.426;11.182;2022-10-16T10:37:33;19.50;99.90
11538;DHT22;50159;49.426;11.182;2022-10-16T10:57:43;20.60;99.90
11538;DHT22;50159;49.426;11.182;2022-10-16T11:00:43;20.80;99.90
11538;DHT22;50159;49.426;11.182;2022-10-16T11:06:33;21.10;99.90
11538;DHT22;50159;49.426;11.182;2022-10-16T11:11:45;20.90;99.90
11538;DHT22;50159;49.426;11.182;2022-10-16T11:14:26;20.60;99.90
11538;DHT22;50159;49.426;11.182;2022-10-16T11:17:11;20.40;99.90
11538;DHT22;50159;49.426;11.182;2022-10-16T11:19:51;20.20;99.90
11538;DHT22;50159;49.426;11.182;2022-10-16T11:22:35;20.20;99.90
11538;DHT22;50159;49.426;11.182;2022-10-16T11:25:20;20.10;99.90
11538;DHT22;50159;49.426;11.182;2022-10-16T11:28:14;20.10;99.90
11538;DHT22;50159;49.426;11.182;2022-10-16T11:30:51;20.10;99.90
11538;DHT22;50159;49.426;11.182;2022-10-16T11:33:41;20.10;99.90
11538;DHT22;50159;49.426;11.182;2022-10-16T11:39:19;20.10;99.90
11538;DHT22;50159;49.426;11.182;2022-10-16T11:42:17;20.20;99.90
11538;DHT22;50159;49.426;11.182;2022-10-16T11:48:38;20.60;99.90
11538;DHT22;50159;49.426;11.182;2022-10-16T11:54:38;21.10;99.90
11538;DHT22;50159;49.426;11.182;2022-10-16T11:57:23;21.50;99.90
11538;DHT22;50159;49.426;11.182;2022-10-16T12:06:30;22.10;99.50
11538;DHT22;50159;49.426;11.182;2022-10-16T12:09:02;22.00;98.40
11538;DHT22;50159;49.426;11.182;2022-10-16T12:16:56;22.90;98.00
11538;DHT22;50159;49.426;11.182;2022-10-16T12:19:28;23.40;96.00
11538;DHT22;50159;49.426;11.182;2022-10-16T12:21:58;23.80;93.30
11538;DHT22;50159;49.426;11.182;2022-10-16T12:26:56;24.30;91.40
11538;DHT22;50159;49.426;11.182;2022-10-16T12:29:39;24.30;87.20
11538;DHT22;50159;49.426;11.182;2022-10-16T12:35:21;24.30;83.00
11538;DHT22;50159;49.426;11.182;2022-10-16T12:37:51;24.40;83.40
11538;DHT22;50159;49.426;11.182;2022-10-16T12:40:29;24.20;81.60
11538;DHT22;50159;49.426;11.182;2022-10-16T12:42:59;23.80;81.70
11538;DHT22;50159;49.426;11.182;2022-10-16T12:45:37;23.40;82.90
11538;DHT22;50159;49.426;11.182;2022-10-16T12:48:20;23.10;84.30
11538;DHT22;50159;49.426;11.182;2022-10-16T12:51:20;22.70;87.80
11538;DHT22;50159;49.426;11.182;2022-10-16T12:54:12;22.50;89.90
11538;DHT22;50159;49.426;11.182;2022-10-16T12:59:50;22.60;90.30
11538;DHT22;50159;49.426;11.182;2022-10-16T13:11:07;23.20;86.80
11538;DHT22;50159;49.426;11.182;2022-10-16T13:17:20;23.80;88.20
11538;DHT22;50159;49.426;11.182;2022-10-16T13:20:12;24.40;84.10
11538;DHT22;50159;49.426;11.182;2022-10-16T13:28:39;25.70;75.00
11538;DHT22;50159;49.426;11.182;2022-10-16T13:31:15;26.00;72.20
11538;DHT22;50159;49.426;11.182;2022-10-16T13:33:50;26.20;68.80
11538;DHT22;50159;49.426;11.182;2022-10-16T13:36:23;26.50;68.70
11538;DHT22;50159;49.426;11.182;2022-10-16T13:39:20;26.60;65.80
11538;DHT22;50159;49.426;11.182;2022-10-16T13:42:12;26.70;65.40
11538;DHT22;50159;49.426;11.182;2022-10-16T13:44:49;27.10;64.70
11538;DHT22;50159;49.426;11.182;2022-10-16T13:47:19;27.90;63.10
11538;DHT22;50159;49.426;11.182;2022-10-16T13:50:00;30.30;57.30
11538;DHT22;50159;49.426;11.182;2022-10-16T13:52:41;33.20;49.40
11538;DHT22;50159;49.426;11.182;2022-10-16T13:55:15;35.00;42.60
11538;DHT22;50159;49.426;11.182;2022-10-16T13:57:44;36.30;39.90
11538;DHT22;50159;49.426;11.182;2022-10-16T14:02:55;38.90;35.10
11538;DHT22;50159;49.426;11.182;2022-10-16T14:05:27;39.30;33.20
11538;DHT22;50159;49.426;11.182;2022-10-16T14:07:55;38.80;32.10
11538;DHT22;50159;49.426;11.182;2022-10-16T14:10:29;38.10;32.90
11538;DHT22;50159;49.426;11.182;2022-10-16T14:13:00;37.80;33.50
11538;DHT22;50159;49.426;11.182;2022-10-16T14:15:32;38.10;32.80
11538;DHT22;50159;49.426;11.182;2022-10-16T14:18:01;38.40;33.40
11538;DHT22;50159;49.426;11.182;2022-10-16T14:20:31;38.90;32.70
11538;DHT22;50159;49.426;11.182;2022-10-16T14:23:02;39.20;30.80
11538;DHT22;50159;49.426;11.182;2022-10-16T14:25:32;39.00;31.60
11538;DHT22;50159;49.426;11.182;2022-10-16T14:28:18;39.30;30.90
11538;DHT22;50159;49.426;11.182;2022-10-16T14:30:55;38.40;30.10
11538;DHT22;50159;49.426;11.182;2022-10-16T14:33:33;35.50;34.10
11538;DHT22;50159;49.426;11.182;2022-10-16T14:36:06;33.90;38.30
11538;DHT22;50159;49.426;11.182;2022-10-16T14:38:43;32.60;40.00
11538;DHT22;50159;49.426;11.182;2022-10-16T14:41:20;31.10;42.60
11538;DHT22;50159;49.426;11.182;2022-10-16T14:43:55;30.00;44.70
11538;DHT22;50159;49.426;11.182;2022-10-16T14:46:34;29.20;46.30
11538;DHT22;50159;49.426;11.182;2022-10-16T14:51:39;27.20;50.10
11538;DHT22;50159;49.426;11.182;2022-10-16T14:54:09;26.30;52.40
11538;DHT22;50159;49.426;11.182;2022-10-16T14:56:54;25.40;54.90
11538;DHT22;50159;49.426;11.182;2022-10-16T14:59:35;24.70;57.20
11538;DHT22;50159;49.426;11.182;2022-10-16T15:02:31;24.30;59.50
11538;DHT22;50159;49.426;11.182;2022-10-16T15:05:12;23.60;60.60
11538;DHT22;50159;49.426;11.182;2022-10-16T15:07:42;23.30;62.40
11538;DHT22;50159;49.426;11.182;2022-10-16T15:10:10;23.00;63.70
11538;DHT22;50159;49.426;11.182;2022-10-16T15:12:37;22.90;65.30
11538;DHT22;50159;49.426;11.182;2022-10-16T15:17:58;22.50;68.90
11538;DHT22;50159;49.426;11.182;2022-10-16T15:20:29;22.40;70.50
11538;DHT22;50159;49.426;11.182;2022-10-16T15:23:02;22.30;73.00
11538;DHT22;50159;49.426;11.182;2022-10-16T15:25:42;22.10;76.10
11538;DHT22;50159;49.426;11.182;2022-10-16T15:28:11;21.90;79.70
11538;DHT22;50159;49.426;11.182;2022-10-16T15:30:39;21.70;85.30
11538;DHT22;50159;49.426;11.182;2022-10-16T15:33:12;21.50;90.60
11538;DHT22;50159;49.426;11.182;2022-10-16T15:35:48;21.30;94.00
11538;DHT22;50159;49.426;11.182;2022-10-16T15:38:18;21.10;97.90
11538;DHT22;50159;49.426;11.182;2022-10-16T15:40:47;21.00;99.90
11538;DHT22;50159;49.426;11.182;2022-10-16T15:43:15;20.80;99.90
11538;DHT22;50159;49.426;11.182;2022-10-16T15:45:42;20.70;99.90
11538;DHT22;50159;49.426;11.182;2022-10-16T15:48:11;20.60;99.90
11538;DHT22;50159;49.426;11.182;2022-10-16T15:50:40;20.40;99.90
11538;DHT22;50159;49.426;11.182;2022-10-16T15:53:13;20.30;99.90
11538;DHT22;50159;49.426;11.182;2022-10-16T15:55:40;20.10;99.90
11538;DHT22;50159;49.426;11.182;2022-10-16T15:58:07;20.10;99.90
11538;DHT22;50159;49.426;11.182;2022-10-16T16:00:34;19.90;99.90
11538;DHT22;50159;49.426;11.182;2022-10-16T16:03:01;19.90;99.90
11538;DHT22;50159;49.426;11.182;2022-10-16T16:05:28;19.80;99.90
11538;DHT22;50159;49.426;11.182;2022-10-16T16:07:56;19.70;99.90
11538;DHT22;50159;49.426;11.182;2022-10-16T16:10:23;19.80;99.90
11538;DHT22;50159;49.426;11.182;2022-10-16T16:12:50;19.60;99.90
11538;DHT22;50159;49.426;11.182;2022-10-16T16:15:21;19.50;99.90
11538;DHT22;50159;49.426;11.182;2022-10-16T16:17:49;19.30;99.90
11538;DHT22;50159;49.426;11.182;2022-10-16T16:20:16;19.30;99.90
11538;DHT22;50159;49.426;11.182;2022-10-16T16:22:43;19.40;99.90
11538;DHT22;50159;49.426;11.182;2022-10-16T16:25:10;19.20;99.90
11538;DHT22;50159;49.426;11.182;2022-10-16T16:27:37;19.10;99.90
11538;DHT22;50159;49.426;11.182;2022-10-16T16:30:06;19.10;99.90
11538;DHT22;50159;49.426;11.182;2022-10-16T16:32:34;19.00;99.90
11538;DHT22;50159;49.426;11.182;2022-10-16T16:35:02;19.00;99.90
11538;DHT22;50159;49.426;11.182;2022-10-16T16:37:30;18.90;99.90
11538;DHT22;50159;49.426;11.182;2022-10-16T16:39:57;18.80;99.90
11538;DHT22;50159;49.426;11.182;2022-10-16T16:42:27;18.80;99.90
11538;DHT22;50159;49.426;11.182;2022-10-16T16:44:54;18.70;99.90
11538;DHT22;50159;49.426;11.182;2022-10-16T16:47:21;18.80;99.90
11538;DHT22;50159;49.426;11.182;2022-10-16T16:49:48;19.10;99.90
11538;DHT22;50159;49.426;11.182;2022-10-16T16:52:16;18.70;99.90
11538;DHT22;50159;49.426;11.182;2022-10-16T16:54:44;18.50;99.90
11538;DHT22;50159;49.426;11.182;2022-10-16T16:57:19;18.80;99.90
11538;DHT22;50159;49.426;11.182;2022-10-16T16:59:47;18.50;99.90
11538;DHT22;50159;49.426;11.182;2022-10-16T17:02:16;18.40;99.90
11538;DHT22;50159;49.426;11.182;2022-10-16T17:04:43;18.30;99.90
11538;DHT22;50159;49.426;11.182;2022-10-16T17:07:10;18.20;99.90
11538;DHT22;50159;49.426;11.182;2022-10-16T17:09:37;18.50;99.90
11538;DHT22;50159;49.426;11.182;2022-10-16T17:12:04;18.20;99.90
11538;DHT22;50159;49.426;11.182;2022-10-16T17:14:31;18.10;99.90
11538;DHT22;50159;49.426;11.182;2022-10-16T17:16:58;18.10;99.90
11538;DHT22;50159;49.426;11.182;2022-10-16T17:19:25;18.10;99.90
11538;DHT22;50159;49.426;11.182;2022-10-16T17:21:52;18.10;99.90
11538;DHT22;50159;49.426;11.182;2022-10-16T17:24:19;18.00;99.90
11538;DHT22;50159;49.426;11.182;2022-10-16T17:26:46;18.00;99.90
11538;DHT22;50159;49.426;11.182;2022-10-16T17:29:15;17.90;99.90
11538;DHT22;50159;49.426;11.182;2022-10-16T17:31:44;17.90;99.90
11538;DHT22;50159;49.426;11.182;2022-10-16T17:34:12;17.90;99.90